createdAt,value
2019-04-30T00:02:35.660Z,85.40
2019-04-30T00:04:58.500Z,92.47
2019-04-30T00:07:24.939Z,95.10
2019-04-30T00:09:53.999Z,86.23
2019-04-30T00:12:20.566Z,90.70
2019-04-30T00:14:46.813Z,85.57
2019-04-30T00:17:15.939Z,86.07
2019-04-30T00:19:41.297Z,87.57
2019-04-30T00:22:07.614Z,88.40
2019-04-30T00:24:35.454Z,92.00
2019-04-30T00:27:01.985Z,90.47
2019-04-30T00:29:31.004Z,94.93
2019-04-30T00:32:04.132Z,88.07
2019-04-30T00:34:25.558Z,88.87
2019-04-30T00:36:51.632Z,94.33
2019-04-30T00:39:17.763Z,91.27
2019-04-30T00:41:47.403Z,86.37
2019-04-30T00:44:12.287Z,90.67
2019-04-30T00:46:38.601Z,95.40
2019-04-30T00:49:09.856Z,90.60
2019-04-30T00:51:33.100Z,86.30
2019-04-30T00:53:59.313Z,83.93
2019-04-30T00:56:28.169Z,91.03
2019-04-30T00:58:57.470Z,83.63
2019-04-30T01:01:25.288Z,86.53
2019-04-30T01:04:10.079Z,87.33
2019-04-30T01:06:37.175Z,88.63
2019-04-30T01:09:05.445Z,85.33
2019-04-30T01:11:35.447Z,92.87
2019-04-30T01:14:01.464Z,95.37
2019-04-30T01:16:30.151Z,92.80
2019-04-30T01:18:55.891Z,89.37
2019-04-30T01:21:22.225Z,94.07
2019-04-30T01:23:54.552Z,92.27
2019-04-30T01:26:18.749Z,91.87
2019-04-30T01:28:45.333Z,89.77
2019-04-30T01:31:11.703Z,97.50
2019-04-30T01:33:39.002Z,100.50
2019-04-30T01:36:09.697Z,91.40
2019-04-30T01:38:33.722Z,89.07
2019-04-30T01:41:00.064Z,92.07
2019-04-30T01:43:31.769Z,95.27
2019-04-30T01:45:54.389Z,87.10
2019-04-30T01:48:20.674Z,91.13
2019-04-30T01:50:48.687Z,101.00
2019-04-30T01:53:15.194Z,88.37
2019-04-30T01:55:52.114Z,91.77
2019-04-30T01:58:20.231Z,93.60
2019-04-30T02:00:49.298Z,88.37
2019-04-30T02:03:15.883Z,89.70
2019-04-30T02:05:42.167Z,83.23
2019-04-30T02:08:08.484Z,87.13
2019-04-30T02:10:34.729Z,84.80
2019-04-30T02:13:00.928Z,105.37
2019-04-30T02:15:29.022Z,95.83
2019-04-30T02:17:55.059Z,92.73
2019-04-30T02:20:21.294Z,89.60
2019-04-30T02:22:48.644Z,69.77
2019-04-30T02:25:15.063Z,78.70
2019-04-30T02:27:41.252Z,83.47
2019-04-30T02:30:10.781Z,76.80
2019-04-30T02:32:35.814Z,83.43
2019-04-30T02:35:06.120Z,80.87
2019-04-30T02:37:34.177Z,85.70
2019-04-30T02:40:01.008Z,78.50
2019-04-30T02:42:29.702Z,84.40
2019-04-30T02:44:56.314Z,80.37
2019-04-30T02:47:23.375Z,80.63
2019-04-30T02:49:53.403Z,80.00
2019-04-30T02:52:21.766Z,87.77
2019-04-30T02:54:50.891Z,83.57
2019-04-30T02:57:16.983Z,89.20
2019-04-30T03:00:01.907Z,86.40
2019-04-30T03:02:30.467Z,89.20
2019-04-30T03:04:56.776Z,85.30
2019-04-30T03:07:22.895Z,94.30
2019-04-30T03:09:49.922Z,88.33
2019-04-30T03:12:16.206Z,88.70
2019-04-30T03:14:42.400Z,95.70
2019-04-30T03:17:20.891Z,91.87
2019-04-30T03:19:55.231Z,86.27
2019-04-30T03:22:23.433Z,90.17
2019-04-30T03:24:50.251Z,85.67
2019-04-30T03:27:16.538Z,91.70
2019-04-30T03:29:42.671Z,84.73
2019-04-30T03:32:13.647Z,87.43
2019-04-30T03:34:41.381Z,82.10
2019-04-30T03:37:05.159Z,80.80
2019-04-30T03:39:33.844Z,84.13
2019-04-30T03:41:59.786Z,79.33
2019-04-30T03:44:26.256Z,82.87
2019-04-30T03:46:52.468Z,81.83
2019-04-30T03:49:20.255Z,83.97
2019-04-30T03:51:46.599Z,84.17
2019-04-30T03:54:12.952Z,84.57
2019-04-30T03:56:40.514Z,80.90
2019-04-30T03:59:10.093Z,80.23
2019-04-30T04:01:39.749Z,77.23
2019-04-30T04:04:20.081Z,72.53
2019-04-30T04:07:00.640Z,78.80
2019-04-30T04:09:31.659Z,77.47
2019-04-30T04:12:00.026Z,77.17
2019-04-30T04:14:26.219Z,75.03
2019-04-30T04:16:52.339Z,83.67
2019-04-30T04:19:19.667Z,78.00
2019-04-30T04:21:45.917Z,78.33
2019-04-30T04:24:12.062Z,80.87
2019-04-30T04:26:43.315Z,81.27
2019-04-30T04:29:12.032Z,79.53
2019-04-30T04:31:34.561Z,77.60
2019-04-30T04:34:00.926Z,79.13
2019-04-30T04:36:29.947Z,74.83
2019-04-30T04:38:55.368Z,76.80
2019-04-30T04:41:21.584Z,82.30
2019-04-30T04:43:50.236Z,82.43
2019-04-30T04:46:15.934Z,72.57
2019-04-30T04:48:42.227Z,77.67
2019-04-30T04:51:14.582Z,73.40
2019-04-30T04:53:36.555Z,75.60
2019-04-30T04:56:02.780Z,77.40
2019-04-30T04:58:30.313Z,79.07
2019-04-30T05:00:59.119Z,79.63
2019-04-30T05:03:26.718Z,78.43
2019-04-30T05:05:53.064Z,73.13
2019-04-30T05:08:19.246Z,73.63
2019-04-30T05:10:45.465Z,77.33
2019-04-30T05:13:11.651Z,69.87
2019-04-30T05:15:39.038Z,73.63
2019-04-30T05:18:05.284Z,74.70
2019-04-30T05:20:31.525Z,70.57
2019-04-30T05:22:58.506Z,71.37
2019-04-30T05:25:24.824Z,72.77
2019-04-30T05:27:51.131Z,69.53
2019-04-30T05:30:19.397Z,71.07
2019-04-30T05:32:45.810Z,68.23
2019-04-30T05:35:12.108Z,70.70
2019-04-30T05:37:38.586Z,70.67
2019-04-30T05:40:05.928Z,66.00
2019-04-30T05:42:32.084Z,66.00
2019-04-30T05:44:59.352Z,65.60
2019-04-30T05:47:25.738Z,68.77
2019-04-30T05:49:51.871Z,70.13
2019-04-30T05:52:19.925Z,70.17
2019-04-30T05:54:46.162Z,68.80
2019-04-30T05:57:12.441Z,65.50
2019-04-30T05:59:38.869Z,65.43
2019-04-30T06:02:05.282Z,66.77
2019-04-30T06:04:31.497Z,67.47
2019-04-30T06:06:58.708Z,66.90
2019-04-30T06:09:33.655Z,67.43
2019-04-30T06:12:12.186Z,66.47
2019-04-30T06:14:52.599Z,69.20
2019-04-30T06:17:20.937Z,72.83
2019-04-30T06:19:49.125Z,64.97
2019-04-30T06:22:15.838Z,68.23
2019-04-30T06:24:42.137Z,67.87
2019-04-30T06:27:10.777Z,70.67
2019-04-30T06:29:39.075Z,66.23
2019-04-30T06:32:06.335Z,66.33
2019-04-30T06:34:32.898Z,61.37
2019-04-30T06:36:59.593Z,66.13
2019-04-30T06:39:26.034Z,70.47
2019-04-30T06:42:04.266Z,63.30
2019-04-30T06:44:34.758Z,68.77
2019-04-30T06:46:51.458Z,63.10
2019-04-30T06:49:19.475Z,69.47
2019-04-30T06:51:46.111Z,62.87
2019-04-30T06:54:12.445Z,66.40
2019-04-30T06:56:38.807Z,66.20
2019-04-30T06:59:05.156Z,62.27
2019-04-30T07:01:31.380Z,62.23
2019-04-30T07:04:00.809Z,59.53
2019-04-30T07:06:29.574Z,61.77
2019-04-30T07:09:10.835Z,61.07
2019-04-30T07:11:39.257Z,65.53
2019-04-30T07:14:05.781Z,61.47
2019-04-30T07:16:32.503Z,64.93
2019-04-30T07:18:58.756Z,63.50
2019-04-30T07:21:25.080Z,64.57
2019-04-30T07:23:51.494Z,63.10
2019-04-30T07:26:19.781Z,66.07
2019-04-30T07:28:51.828Z,71.73
2019-04-30T07:31:14.755Z,67.23
2019-04-30T07:33:41.257Z,68.43
2019-04-30T07:36:09.552Z,66.40
2019-04-30T07:38:42.133Z,62.37
2019-04-30T07:41:03.936Z,63.87
2019-04-30T07:43:30.264Z,65.30
2019-04-30T07:45:56.464Z,64.23
2019-04-30T07:48:26.393Z,59.57
2019-04-30T07:50:52.111Z,61.93
2019-04-30T07:53:18.867Z,61.57
2019-04-30T07:55:45.135Z,57.70
2019-04-30T07:58:11.454Z,59.70
2019-04-30T08:00:40.343Z,55.70
2019-04-30T08:03:10.427Z,57.60
2019-04-30T08:05:46.642Z,54.07
2019-04-30T08:08:21.203Z,56.73
2019-04-30T08:10:41.100Z,52.60
2019-04-30T08:13:13.931Z,53.63
2019-04-30T08:15:35.558Z,56.80
2019-04-30T08:18:05.727Z,51.67
2019-04-30T08:20:30.184Z,55.13
2019-04-30T08:22:56.421Z,53.97
2019-04-30T08:25:22.637Z,59.17
2019-04-30T08:27:49.378Z,56.00
2019-04-30T08:30:23.752Z,56.40
2019-04-30T08:32:43.889Z,52.13
2019-04-30T08:35:10.450Z,51.93
2019-04-30T08:37:38.569Z,50.53
2019-04-30T08:40:05.543Z,51.67
2019-04-30T08:42:34.617Z,48.40
2019-04-30T08:44:59.975Z,47.43
2019-04-30T08:47:26.206Z,52.70
2019-04-30T08:49:52.501Z,52.43
2019-04-30T08:52:19.578Z,51.47
2019-04-30T08:54:46.178Z,56.80
2019-04-30T08:57:12.416Z,51.73
2019-04-30T08:59:39.451Z,53.13
2019-04-30T09:02:13.632Z,53.90
2019-04-30T09:04:34.134Z,53.87
2019-04-30T09:07:00.308Z,50.77
2019-04-30T09:09:26.543Z,49.87
2019-04-30T09:11:55.597Z,52.70
2019-04-30T09:14:20.727Z,49.90
2019-04-30T09:16:47.068Z,48.20
2019-04-30T09:19:15.315Z,52.27
2019-04-30T09:21:41.536Z,51.53
2019-04-30T09:24:09.541Z,47.40
2019-04-30T09:26:36.821Z,49.90
2019-04-30T09:29:03.025Z,48.77
2019-04-30T09:31:29.707Z,45.17
2019-04-30T09:33:58.052Z,47.10
2019-04-30T09:36:24.086Z,55.37
2019-04-30T09:38:50.316Z,50.80
2019-04-30T09:41:16.390Z,49.03
2019-04-30T09:43:42.615Z,48.37
2019-04-30T09:46:18.733Z,51.97
2019-04-30T09:48:38.617Z,49.70
2019-04-30T09:51:05.525Z,49.17
2019-04-30T09:53:32.169Z,46.83
2019-04-30T09:55:59.617Z,45.40
2019-04-30T09:58:26.251Z,47.97
2019-04-30T10:00:52.601Z,48.20
2019-04-30T10:03:20.140Z,46.17
2019-04-30T10:05:48.967Z,47.07
2019-04-30T10:08:15.399Z,49.60
2019-04-30T10:10:43.523Z,47.57
2019-04-30T10:13:09.855Z,49.20
2019-04-30T10:15:50.016Z,50.83
2019-04-30T10:18:15.139Z,49.40
2019-04-30T10:20:42.645Z,53.67
2019-04-30T10:23:09.553Z,43.83
2019-04-30T10:25:36.598Z,47.97
2019-04-30T10:28:03.639Z,49.17
2019-04-30T10:30:34.448Z,49.17
2019-04-30T10:33:00.702Z,48.63
2019-04-30T10:35:28.552Z,45.10
2019-04-30T10:37:54.977Z,57.23
2019-04-30T10:40:21.167Z,46.77
2019-04-30T10:42:48.882Z,46.20
2019-04-30T10:45:15.691Z,45.90
2019-04-30T10:47:41.955Z,46.80
2019-04-30T10:50:09.889Z,44.70
2019-04-30T10:52:36.371Z,49.37
2019-04-30T10:55:04.729Z,46.83
2019-04-30T10:57:31.092Z,50.63
2019-04-30T10:59:58.696Z,43.90
2019-04-30T11:02:25.186Z,47.13
2019-04-30T11:04:51.379Z,41.97
2019-04-30T11:07:18.612Z,38.73
2019-04-30T11:09:45.081Z,41.57
2019-04-30T11:12:12.317Z,38.63
2019-04-30T11:14:38.486Z,43.83
2019-04-30T11:17:05.132Z,38.47
2019-04-30T11:19:31.828Z,37.93
2019-04-30T11:21:58.346Z,38.10
2019-04-30T11:24:35.934Z,38.90
2019-04-30T11:26:54.513Z,38.20
2019-04-30T11:29:23.050Z,34.87
2019-04-30T11:31:51.431Z,35.23
2019-04-30T11:34:17.872Z,37.73
2019-04-30T11:36:44.185Z,34.10
2019-04-30T11:39:12.936Z,33.63
2019-04-30T11:41:39.596Z,33.73
2019-04-30T11:44:06.003Z,35.50
2019-04-30T11:46:59.694Z,32.67
2019-04-30T11:49:27.289Z,34.13
2019-04-30T11:51:53.718Z,34.73
2019-04-30T11:54:20.835Z,34.23
2019-04-30T11:56:50.241Z,31.37
2019-04-30T11:59:15.363Z,35.67
2019-04-30T12:01:41.707Z,30.20
2019-04-30T12:04:09.331Z,32.13
2019-04-30T12:06:35.821Z,31.33
2019-04-30T12:09:15.240Z,30.77
2019-04-30T12:11:45.686Z,30.97
2019-04-30T12:14:12.031Z,34.20
2019-04-30T12:16:39.557Z,30.53
2019-04-30T12:19:06.162Z,30.72
2019-04-30T12:21:32.494Z,30.90
2019-04-30T12:23:58.759Z,29.65
2019-04-30T12:26:24.894Z,28.65
2019-04-30T12:28:51.141Z,29.57
2019-04-30T12:31:18.711Z,26.63
2019-04-30T12:33:45.041Z,27.07
2019-04-30T12:36:11.289Z,26.12
2019-04-30T12:38:37.638Z,25.82
2019-04-30T12:41:04.058Z,24.45
2019-04-30T12:43:30.267Z,28.98
2019-04-30T12:46:04.841Z,24.80
2019-04-30T12:48:39.589Z,31.00
2019-04-30T12:51:23.371Z,27.87
2019-04-30T12:54:00.742Z,29.50
2019-04-30T12:56:31.977Z,25.23
2019-04-30T12:58:58.233Z,26.00
2019-04-30T13:01:24.549Z,25.20
2019-04-30T13:03:58.668Z,23.67
2019-04-30T13:06:20.420Z,24.57
2019-04-30T13:08:49.228Z,25.77
2019-04-30T13:11:15.424Z,23.18
2019-04-30T13:13:43.925Z,26.35
2019-04-30T13:16:10.647Z,23.38
2019-04-30T13:18:36.781Z,22.67
2019-04-30T13:21:03.339Z,26.15
2019-04-30T13:23:29.827Z,24.10
2019-04-30T13:25:56.018Z,24.40
2019-04-30T13:28:24.143Z,25.43
2019-04-30T13:30:50.504Z,24.05
2019-04-30T13:33:28.855Z,22.85
2019-04-30T13:35:55.244Z,21.75
2019-04-30T13:38:26.085Z,22.83
2019-04-30T13:40:58.812Z,23.22
2019-04-30T13:43:36.037Z,21.80
2019-04-30T13:46:02.571Z,24.65
2019-04-30T13:48:28.642Z,20.77
2019-04-30T13:50:55.751Z,22.47
2019-04-30T13:53:22.081Z,25.50
2019-04-30T13:55:48.903Z,23.07
2019-04-30T13:58:15.203Z,24.93
2019-04-30T14:00:42.304Z,25.40
2019-04-30T14:03:19.319Z,25.03
2019-04-30T14:05:45.576Z,24.73
2019-04-30T14:08:22.639Z,23.97
2019-04-30T14:10:49.718Z,24.03
2019-04-30T14:13:16.179Z,23.10
2019-04-30T14:15:43.939Z,26.73
2019-04-30T14:18:10.358Z,24.43
2019-04-30T14:20:36.725Z,25.60
2019-04-30T14:23:03.346Z,25.00
2019-04-30T14:25:29.980Z,25.13
2019-04-30T14:27:56.279Z,26.57
2019-04-30T14:30:22.718Z,23.63
2019-04-30T14:32:50.726Z,23.77
2019-04-30T14:35:18.675Z,25.07
2019-04-30T14:37:45.024Z,24.93
2019-04-30T14:40:13.209Z,24.27
2019-04-30T14:42:42.619Z,26.40
2019-04-30T14:45:18.528Z,26.30
2019-04-30T14:47:50.816Z,26.67
2019-04-30T14:50:19.736Z,26.33
2019-04-30T14:53:03.111Z,25.07
2019-04-30T14:55:31.350Z,23.20
2019-04-30T14:57:59.563Z,25.33
2019-04-30T15:00:38.433Z,27.00
2019-04-30T15:03:15.615Z,29.40
2019-04-30T15:05:48.455Z,24.40
2019-04-30T15:08:10.064Z,28.17
2019-04-30T15:10:36.506Z,26.13
2019-04-30T15:13:02.830Z,24.47
2019-04-30T15:15:29.297Z,27.17
2019-04-30T15:17:56.567Z,27.73
2019-04-30T15:20:22.860Z,27.77
2019-04-30T15:22:58.724Z,27.17
2019-04-30T15:25:25.052Z,27.63
2019-04-30T15:27:51.409Z,30.17
2019-04-30T15:30:21.565Z,25.43
2019-04-30T15:32:49.544Z,26.67
2019-04-30T15:35:15.808Z,26.73
2019-04-30T15:37:44.086Z,26.37
2019-04-30T15:40:10.500Z,31.60
2019-04-30T15:42:38.698Z,26.53
2019-04-30T15:45:05.591Z,28.50
2019-04-30T15:47:32.287Z,29.07
2019-04-30T15:49:59.671Z,29.30
2019-04-30T15:52:28.764Z,29.10
2019-04-30T15:54:54.750Z,26.83
2019-04-30T15:57:20.979Z,28.60
2019-04-30T15:59:47.193Z,30.67
2019-04-30T16:02:15.409Z,28.27
2019-04-30T16:04:59.865Z,27.67
2019-04-30T16:07:26.345Z,29.63
2019-04-30T16:10:06.325Z,28.87
2019-04-30T16:12:34.581Z,30.00
2019-04-30T16:15:00.687Z,33.23
2019-04-30T16:17:29.035Z,33.07
2019-04-30T16:19:55.278Z,31.07
2019-04-30T16:22:21.657Z,29.83
2019-04-30T16:24:49.506Z,31.73
2019-04-30T16:27:15.998Z,32.63
2019-04-30T16:29:42.313Z,32.73
2019-04-30T16:32:09.275Z,30.00
2019-04-30T16:34:35.864Z,32.67
2019-04-30T16:37:02.232Z,28.27
2019-04-30T16:39:28.897Z,33.17
2019-04-30T16:41:55.276Z,31.33
2019-04-30T16:44:22.625Z,31.13
2019-04-30T16:46:49.916Z,29.97
2019-04-30T16:49:16.432Z,30.60
2019-04-30T16:51:42.660Z,31.20
2019-04-30T16:54:09.054Z,30.27
2019-04-30T16:56:35.364Z,30.10
2019-04-30T16:59:06.161Z,28.80
2019-04-30T17:01:33.841Z,31.23
2019-04-30T17:04:20.220Z,31.57
2019-04-30T17:07:03.748Z,28.03
2019-04-30T17:09:43.917Z,27.97
2019-04-30T17:12:12.156Z,30.77
2019-04-30T17:14:43.099Z,28.17
2019-04-30T17:17:09.668Z,28.70
2019-04-30T17:19:36.061Z,25.77
2019-04-30T17:22:02.476Z,29.53
2019-04-30T17:24:30.246Z,25.73
2019-04-30T17:26:59.254Z,28.97
2019-04-30T17:29:25.618Z,31.97
2019-04-30T17:31:53.179Z,27.77
2019-04-30T17:34:19.500Z,26.80
2019-04-30T17:36:45.726Z,25.47
2019-04-30T17:39:16.593Z,26.30
2019-04-30T17:41:42.926Z,29.57
2019-04-30T17:44:09.400Z,27.20
2019-04-30T17:46:38.728Z,28.00
2019-04-30T17:49:05.075Z,27.73
2019-04-30T17:51:31.401Z,27.10
2019-04-30T17:54:14.454Z,26.33
2019-04-30T17:56:42.299Z,25.77
2019-04-30T17:59:08.668Z,27.00
2019-04-30T18:01:35.726Z,26.37
2019-04-30T18:04:01.990Z,26.40
2019-04-30T18:06:28.331Z,26.13
2019-04-30T18:08:54.848Z,28.60
2019-04-30T18:11:22.288Z,27.90
2019-04-30T18:13:50.665Z,27.27
2019-04-30T18:16:18.714Z,27.73
2019-04-30T18:18:49.066Z,25.70
2019-04-30T18:21:18.995Z,27.50
2019-04-30T18:23:53.351Z,25.30
2019-04-30T18:26:19.577Z,28.00
2019-04-30T18:28:45.851Z,26.07
2019-04-30T18:31:12.215Z,27.47
2019-04-30T18:33:38.807Z,34.03
2019-04-30T18:36:05.228Z,34.57
2019-04-30T18:38:31.602Z,28.70
2019-04-30T18:40:59.490Z,36.90
2019-04-30T18:43:25.848Z,55.40
2019-04-30T18:45:52.167Z,74.70
2019-04-30T18:48:19.545Z,36.77
2019-04-30T18:50:45.807Z,30.97
2019-04-30T18:53:15.116Z,30.30
2019-04-30T18:55:41.377Z,34.93
2019-04-30T18:58:08.792Z,30.17
2019-04-30T19:00:39.393Z,31.57
2019-04-30T19:03:05.472Z,31.60
2019-04-30T19:05:31.717Z,30.07
2019-04-30T19:08:09.802Z,28.87
2019-04-30T19:10:43.912Z,29.83
2019-04-30T19:13:29.851Z,27.63
2019-04-30T19:16:22.093Z,29.33
2019-04-30T19:18:50.805Z,28.23
2019-04-30T19:21:17.157Z,28.93
2019-04-30T19:23:43.658Z,26.87
2019-04-30T19:26:09.920Z,29.40
2019-04-30T19:28:36.203Z,29.10
2019-04-30T19:31:02.677Z,28.30
2019-04-30T19:33:31.038Z,30.70
2019-04-30T19:35:58.629Z,27.60
2019-04-30T19:38:26.172Z,30.57
2019-04-30T19:40:52.445Z,31.03
2019-04-30T19:43:18.781Z,30.10
2019-04-30T19:45:45.006Z,32.50
2019-04-30T19:48:11.476Z,31.80
2019-04-30T19:50:37.816Z,29.80
2019-04-30T19:53:04.158Z,30.83
2019-04-30T19:55:30.870Z,28.70
2019-04-30T19:57:59.697Z,33.50
2019-04-30T20:00:25.581Z,33.53
2019-04-30T20:02:52.289Z,31.50
2019-04-30T20:05:19.391Z,30.40
2019-04-30T20:07:45.837Z,29.93
2019-04-30T20:10:12.238Z,32.37
2019-04-30T20:12:38.929Z,33.07
2019-04-30T20:15:16.553Z,30.67
2019-04-30T20:17:33.897Z,34.10
2019-04-30T20:20:00.097Z,34.17
2019-04-30T20:22:26.308Z,33.97
2019-04-30T20:24:52.679Z,35.23
2019-04-30T20:27:19.916Z,33.80
2019-04-30T20:29:46.428Z,36.00
2019-04-30T20:32:12.892Z,38.10
2019-04-30T20:34:39.288Z,35.23
2019-04-30T20:37:05.660Z,38.07
2019-04-30T20:39:42.819Z,36.73
2019-04-30T20:42:09.060Z,37.57
2019-04-30T20:44:35.275Z,37.33
2019-04-30T20:47:01.608Z,40.97
2019-04-30T20:49:29.135Z,38.83
2019-04-30T20:51:56.144Z,39.73
2019-04-30T20:54:22.650Z,39.73
2019-04-30T20:56:51.034Z,35.87
2019-04-30T20:59:18.903Z,37.03
2019-04-30T21:01:45.283Z,38.57
2019-04-30T21:04:11.621Z,37.50
2019-04-30T21:06:39.566Z,37.90
2019-04-30T21:09:05.932Z,36.90
2019-04-30T21:11:32.449Z,41.00
2019-04-30T21:13:59.147Z,39.23
2019-04-30T21:16:25.571Z,40.37
2019-04-30T21:18:51.767Z,41.20
2019-04-30T21:21:18.867Z,42.83
2019-04-30T21:23:46.235Z,42.80
2019-04-30T21:26:12.597Z,43.97
2019-04-30T21:28:39.351Z,44.13
2019-04-30T21:31:24.431Z,39.77
2019-04-30T21:33:52.431Z,43.63
2019-04-30T21:36:20.583Z,43.60
2019-04-30T21:38:48.920Z,41.67
2019-04-30T21:41:15.060Z,43.30
2019-04-30T21:43:41.409Z,45.83
2019-04-30T21:46:09.392Z,42.50
2019-04-30T21:48:38.809Z,42.33
2019-04-30T21:51:04.987Z,44.83
2019-04-30T21:53:31.424Z,43.47
2019-04-30T21:55:57.659Z,44.40
2019-04-30T21:58:23.848Z,45.70
2019-04-30T22:01:07.776Z,45.03
2019-04-30T22:03:35.055Z,43.60
2019-04-30T22:06:01.412Z,45.73
2019-04-30T22:08:28.789Z,44.83
2019-04-30T22:10:55.167Z,51.00
2019-04-30T22:13:21.355Z,48.40
2019-04-30T22:15:47.587Z,51.13
2019-04-30T22:18:13.795Z,48.90
2019-04-30T22:20:40.350Z,45.93
2019-04-30T22:23:06.618Z,47.07
2019-04-30T22:25:32.926Z,49.63
2019-04-30T22:27:59.137Z,49.33
2019-04-30T22:30:25.641Z,49.30
2019-04-30T22:32:51.869Z,51.00
2019-04-30T22:35:25.849Z,48.60
2019-04-30T22:37:54.188Z,50.90
2019-04-30T22:40:20.496Z,50.87
2019-04-30T22:42:46.732Z,52.17
2019-04-30T22:45:15.443Z,49.57
2019-04-30T22:47:41.771Z,52.73
2019-04-30T22:50:08.122Z,51.77
2019-04-30T22:52:34.363Z,52.40
2019-04-30T22:55:01.681Z,57.33
2019-04-30T22:57:28.119Z,58.80
2019-04-30T22:59:54.251Z,52.80
2019-04-30T23:02:26.026Z,52.60
2019-04-30T23:04:52.943Z,50.33
2019-04-30T23:07:19.183Z,57.40
2019-04-30T23:09:45.381Z,57.87
2019-04-30T23:12:11.963Z,60.43
2019-04-30T23:14:38.251Z,57.80
2019-04-30T23:17:04.797Z,60.57
2019-04-30T23:19:31.172Z,57.30
2019-04-30T23:21:57.389Z,59.90
2019-04-30T23:24:23.587Z,54.33
2019-04-30T23:26:49.925Z,54.63
2019-04-30T23:29:16.035Z,55.57
2019-04-30T23:31:42.256Z,56.87
2019-04-30T23:34:17.833Z,55.43
2019-04-30T23:36:36.704Z,60.90
2019-04-30T23:39:04.659Z,61.97
2019-04-30T23:41:30.871Z,64.93
2019-04-30T23:43:57.101Z,59.43
2019-04-30T23:46:23.233Z,56.70
2019-04-30T23:48:49.349Z,59.13
2019-04-30T23:51:15.682Z,55.30
2019-04-30T23:53:41.793Z,54.07
2019-04-30T23:56:07.898Z,62.47
2019-04-30T23:58:34.113Z,63.40
